Saturday, January 20, 2018, 8:21 AM EST
Back to Local

KLGA, New York La Guardia Airport

Location: Astoria, NY, United States Lat: 40.783
Local Time: 8:21 AM EST (13:21 GMT) Lon: -73.883
Time Zone: US/Eastern Elev: 22 ft

Show me the last for .
Show Decoded

2018-01-20 07:51 METAR KLGA 201251Z 22008G20KT 10SM SCT250 04/M06 A2987 RMK AO2 SLP116 T00441061
                 =
2018-01-20 06:51 METAR KLGA 201151Z 23012KT 10SM SCT250 04/M07 A2986 RMK AO2 SLP112 T00441067
                 10044 20028 57007 =
2018-01-20 05:51 METAR KLGA 201051Z 22010KT 10SM SCT250 04/M07 A2987 RMK AO2 SLP116 T00441067 =
2018-01-20 04:51 METAR KLGA 200951Z 22010G17KT 10SM FEW250 04/M07 A2988 RMK AO2 SLP116 T00441072
                 =
2018-01-20 03:51 METAR KLGA 200851Z 23012G20KT 10SM FEW250 04/M07 A2989 RMK AO2 SLP120 T00441072
                 57010 =
2018-01-20 01:51 METAR KLGA 200651Z 21010KT 10SM FEW250 03/M07 A2990 RMK AO2 SLP126 T00331072 =
2018-01-20 00:51 METAR KLGA 200551Z 23009KT 10SM FEW250 04/M07 A2992 RMK AO2 SLP130 T00391072
                 10044 20033 56019 =
2018-01-19 23:51 METAR KLGA 200451Z 22011KT 10SM FEW250 04/M07 A2993 RMK AO2 SLP134 T00391072
                 400441033 =
2018-01-19 22:51 METAR KLGA 200351Z 22008KT 10SM FEW250 04/M07 A2995 RMK AO2 SLP142 T00391072 =
2018-01-19 21:51 METAR KLGA 200251Z 22007KT 10SM SCT260 04/M07 A2997 RMK AO2 SLP149 T00391072
                 58004 =
2018-01-19 20:51 METAR KLGA 200151Z 22008KT 10SM FEW260 04/M07 A2998 RMK AO2 SLP152 T00391072 =
2018-01-19 19:51 METAR KLGA 200051Z 23008KT 10SM SCT260 04/M08 A2999 RMK AO2 SLP153 T00391078 =
2018-01-19 18:51 METAR KLGA 192351Z 23008KT 10SM SCT200 BKN260 03/M08 A2998 RMK AO2 SLP153
                 T00331083 10039 20017 51002 =
2018-01-19 17:51 METAR KLGA 192251Z 24006KT 10SM SCT200 BKN260 03/M08 A2998 RMK AO2 SLP152
                 T00281083 =
2018-01-19 16:51 METAR KLGA 192151Z 21007KT 10SM SCT200 BKN260 03/M08 A2998 RMK AO2 SLP152
                 T00331083 =
2018-01-19 15:51 METAR KLGA 192051Z 24005KT 10SM SCT220 03/M09 A2998 RMK AO2 SLP151 T00331089
                 55009 =
2018-01-19 14:51 METAR KLGA 191951Z 25006KT 10SM BKN220 03/M09 A2997 RMK AO2 SLP149 T00281094 =
2018-01-19 13:51 METAR KLGA 191851Z 27008KT 10SM BKN170 02/M10 A2999 RMK AO2 SLP154 T00221100 =
2018-01-19 12:51 METAR KLGA 191751Z 28009KT 10SM BKN200 02/M10 A3001 RMK AO2 SLP160 T00221100
                 10022 20000 58026 =
2018-01-19 11:51 METAR KLGA 191651Z 25010KT 10SM BKN200 01/M10 A3004 RMK AO2 SLP173 T00111100 =
2018-01-19 10:51 METAR KLGA 191551Z 25011KT 10SM BKN210 OVC250 01/M11 A3007 RMK AO2 SLP182
                 T00061111 =
2018-01-19 09:51 METAR KLGA 191451Z 27012KT 10SM OVC220 00/M11 A3008 RMK AO2 SLP186 T00001111
                 53009 =
2018-01-19 08:51 METAR KLGA 191351Z 27013G20KT 10SM BKN210 00/M11 A3008 RMK AO2 SLP184 T00001111
                 =

Support USWX by starting your Amazon purchase here.